Somerset, California
Current Conditions -  °F | °C
As of 4:55 AM on Saturday 25 Oct 2014 (Local Time) from KPVF Reporting Station
Broken Clouds Broken Clouds  
Wind Chill: 50°   Ceiling: 6500
Heat Index: 50°   Visibility: 10mi
Dew Point: 48°   Wind: 7mph
Humidity: 94%   Direction: 100°E
Pressure: 30"   Gusts: NA
Location:  38.6°N, 120.66°W
Report Text: KPVF 251155Z AUTO 10006KT 10SM BKN065 10/09 A3000 RMK AO1
Loading
Personal Weather Stations






























Interactive Weather Map
Tropical Storm Tracking
New forecast layout! Learn more

10-Day Weather Forecast

Advertisements
Track Severe Weather on mobile